Time;durP1;ratioP1;P1;durP2;ratioP2;P2;SDS_P1;SDS_P2;PMS_P1;PMS_P2;Temp;Humidity;BMP_temperature;BMP_pressure;BME280_temperature;BME280_humidity;BME280_pressure;Samples;Min_cycle;Max_cycle;Signal;HPM_P1;HPM_P2
2021/12/10 00:00:42;;;;;;;2.78;0.70;;;7.60;99.90;;;;;;4983399;28;20058;-73
2021/12/10 00:03:16;;;;;;;3.00;0.90;;;7.60;99.90;;;;;;4984496;28;20058;-72
2021/12/10 00:05:49;;;;;;;2.85;1.30;;;7.60;99.90;;;;;;4982766;28;20050;-74
2021/12/10 00:08:18;;;;;;;1.15;0.65;;;7.60;99.90;;;;;;4983165;28;20402;-73
2021/12/10 00:10:49;;;;;;;4.35;1.00;;;7.60;99.90;;;;;;5015240;28;20069;-74
2021/12/10 00:13:17;;;;;;;2.17;0.65;;;7.60;99.90;;;;;;4987256;28;20436;-73
2021/12/10 00:15:45;;;;;;;2.00;0.50;;;7.80;99.90;;;;;;4979155;28;20053;-73
2021/12/10 00:18:16;;;;;;;2.58;0.80;;;7.70;99.90;;;;;;4979750;28;20054;-73
2021/12/10 00:20:46;;;;;;;1.95;0.60;;;7.70;99.90;;;;;;4998692;28;20373;-76
2021/12/10 00:23:17;;;;;;;1.00;0.60;;;7.70;99.90;;;;;;4986062;28;20062;-73
2021/12/10 00:25:49;;;;;;;0.82;0.50;;;7.70;99.90;;;;;;4985729;28;20050;-72
2021/12/10 00:28:39;;;;;;;0.82;0.50;;;7.70;99.90;;;;;;4999431;28;20050;-73
2021/12/10 00:31:18;;;;;;;2.75;0.70;;;7.80;99.90;;;;;;4987411;28;20050;-74
2021/12/10 00:33:46;;;;;;;;;;;7.80;99.90;;;;;;4987505;28;20685;-73
2021/12/10 00:36:14;;;;;;;0.85;0.60;;;7.80;99.90;;;;;;4987170;28;19931;-73
2021/12/10 00:38:42;;;;;;;3.15;0.80;;;7.80;99.90;;;;;;4988146;28;20050;-73
2021/12/10 00:41:10;;;;;;;3.03;1.40;;;7.80;99.90;;;;;;5003429;28;20874;-74
2021/12/10 00:43:39;;;;;;;;;;;7.90;99.90;;;;;;4987752;28;20054;-73
2021/12/10 00:46:06;;;;;;;4.90;2.40;;;7.90;99.90;;;;;;4988499;28;19932;-73
2021/12/10 00:48:35;;;;;;;6.10;3.10;;;7.90;99.90;;;;;;4989165;28;20061;-73
2021/12/10 00:51:06;;;;;;;4.82;3.75;;;8.00;99.90;;;;;;4988641;28;20058;-73
2021/12/10 00:53:35;;;;;;;5.63;3.28;;;8.00;99.90;;;;;;4989037;28;20294;-73
2021/12/10 00:56:04;;;;;;;4.82;3.20;;;7.90;99.90;;;;;;4987862;28;20088;-73
2021/12/10 00:58:33;;;;;;;4.80;3.50;;;8.00;99.90;;;;;;4989015;28;20077;-72
2021/12/10 01:01:06;;;;;;;5.72;3.90;;;8.00;99.90;;;;;;5004035;28;20065;-72
2021/12/10 01:03:39;;;;;;;7.63;4.43;;;8.00;99.90;;;;;;5003797;28;20057;-72
2021/12/10 01:06:09;;;;;;;9.93;4.95;;;8.10;99.90;;;;;;4988714;28;20050;-73
2021/12/10 01:08:40;;;;;;;9.00;6.10;;;8.10;99.90;;;;;;4988421;28;20050;-72
2021/12/10 01:11:26;;;;;;;13.85;6.10;;;8.10;99.90;;;;;;4987241;28;20047;-72
2021/12/10 01:14:00;;;;;;;10.13;6.45;;;8.10;99.90;;;;;;5003582;28;20049;-73
2021/12/10 01:27:34;;;;;;;13.52;8.40;;;8.00;99.90;;;;;;4969606;28;20065;-73
2021/12/10 01:30:31;;;;;;;11.50;8.10;;;8.00;99.90;;;;;;4988445;28;20600;-73
2021/12/10 01:33:03;;;;;;;12.30;8.65;;;8.00;99.90;;;;;;4988215;28;20487;-73
2021/12/10 01:35:40;;;;;;;13.07;8.60;;;8.00;99.90;;;;;;4986773;28;20046;-74
2021/12/10 01:38:10;;;;;;;15.70;8.57;;;7.90;99.90;;;;;;4987717;28;20496;-74
2021/12/10 01:40:43;;;;;;;13.25;8.75;;;7.90;99.90;;;;;;4987469;28;20057;-73
2021/12/10 01:43:22;;;;;;;11.80;8.43;;;7.90;99.90;;;;;;4987666;28;20062;-73
2021/12/10 01:45:54;;;;;;;12.80;8.57;;;7.90;99.90;;;;;;5002551;28;20057;-72
2021/12/10 01:48:47;;;;;;;13.27;8.05;;;7.90;99.90;;;;;;4987124;28;20408;-73
2021/12/10 01:51:19;;;;;;;12.05;8.38;;;7.90;99.90;;;;;;5014563;28;20050;-72
2021/12/10 01:53:51;;;;;;;12.75;9.27;;;7.80;99.90;;;;;;4988622;28;20118;-72
2021/12/10 01:56:24;;;;;;;14.82;8.40;;;7.80;99.90;;;;;;4987670;28;20043;-72
2021/12/10 01:58:52;;;;;;;13.88;8.65;;;7.80;99.90;;;;;;5018398;28;20396;-73
2021/12/10 02:01:29;;;;;;;12.88;8.18;;;7.80;99.90;;;;;;4987759;28;20177;-76
2021/12/10 02:03:58;;;;;;;10.18;7.65;;;7.80;99.90;;;;;;4986169;28;20046;-72
2021/12/10 02:06:26;;;;;;;11.95;7.85;;;7.70;99.90;;;;;;4989143;28;20046;-73
2021/12/10 02:08:55;;;;;;;14.23;7.03;;;7.70;99.90;;;;;;5002332;28;20050;-72
2021/12/10 02:11:23;;;;;;;11.70;6.60;;;7.70;99.90;;;;;;4987027;28;20050;-73
2021/12/10 02:13:50;;;;;;;11.48;6.68;;;7.60;99.90;;;;;;5018395;28;20049;-72
2021/12/10 02:16:19;;;;;;;9.93;6.35;;;7.60;99.90;;;;;;4988124;28;20498;-73
2021/12/10 02:18:48;;;;;;;;;;;7.60;99.90;;;;;;4987795;28;20054;-72
2021/12/10 02:21:19;;;;;;;8.43;5.25;;;7.60;99.90;;;;;;5002734;28;19941;-73
2021/12/10 02:23:57;;;;;;;8.05;5.03;;;7.50;99.90;;;;;;4986124;28;20407;-72
2021/12/10 02:26:32;;;;;;;9.18;5.18;;;7.50;99.90;;;;;;4985702;28;20051;-72
2021/12/10 02:29:01;;;;;;;6.75;4.38;;;7.50;99.90;;;;;;4987351;28;20054;-74
2021/12/10 02:31:29;;;;;;;8.48;4.82;;;7.50;99.90;;;;;;5001032;28;20057;-74
2021/12/10 02:33:58;;;;;;;8.05;4.15;;;7.50;99.90;;;;;;5002036;28;20054;-74
2021/12/10 02:36:26;;;;;;;8.32;3.90;;;7.50;99.90;;;;;;5001726;28;20053;-73
2021/12/10 02:38:56;;;;;;;7.38;3.45;;;7.40;99.90;;;;;;4985721;28;20059;-73
2021/12/10 02:41:27;;;;;;;7.30;3.13;;;7.40;99.90;;;;;;5001694;28;20054;-74
2021/12/10 02:43:56;;;;;;;5.88;2.72;;;7.50;99.90;;;;;;4987146;28;20062;-74
2021/12/10 02:46:24;;;;;;;7.68;2.78;;;7.40;99.90;;;;;;4987039;28;20057;-75
2021/12/10 02:48:54;;;;;;;5.68;2.35;;;7.40;99.90;;;;;;4987390;28;20050;-75
2021/12/10 02:51:23;;;;;;;6.40;2.30;;;7.30;99.90;;;;;;4987270;28;20051;-74
2021/12/10 02:53:51;;;;;;;4.88;2.22;;;7.30;99.90;;;;;;5019087;28;20054;-74
2021/12/10 02:56:21;;;;;;;7.32;1.80;;;7.30;99.90;;;;;;4979503;28;20081;-74
2021/12/10 02:58:53;;;;;;;5.65;1.88;;;7.30;99.90;;;;;;5002500;28;20042;-75
2021/12/10 03:01:38;;;;;;;4.32;1.52;;;7.20;99.90;;;;;;4986352;28;20050;-74
2021/12/10 03:04:07;;;;;;;6.20;1.70;;;7.20;99.90;;;;;;4987467;28;20057;-73
2021/12/10 03:06:44;;;;;;;3.00;1.40;;;7.20;99.90;;;;;;4987284;28;20058;-73
2021/12/10 03:09:13;;;;;;;4.38;1.40;;;7.20;99.90;;;;;;4985567;28;20426;-73
2021/12/10 03:11:46;;;;;;;5.50;1.63;;;7.10;99.90;;;;;;4987181;28;20053;-73
2021/12/10 03:14:20;;;;;;;7.75;1.60;;;7.10;99.90;;;;;;4987485;28;20525;-73
2021/12/10 03:16:51;;;;;;;4.90;1.33;;;7.10;99.90;;;;;;4986262;28;20046;-73
2021/12/10 03:19:20;;;;;;;7.00;1.83;;;7.00;99.90;;;;;;4987149;28;20077;-74
2021/12/10 03:21:49;;;;;;;6.07;1.70;;;7.00;99.90;;;;;;4986916;28;20055;-72
2021/12/10 03:24:20;;;;;;;8.75;1.65;;;6.90;99.90;;;;;;4986496;28;20046;-73
2021/12/10 03:26:51;;;;;;;7.88;1.60;;;7.00;99.90;;;;;;4987100;28;20065;-73
2021/12/10 03:29:21;;;;;;;8.57;1.83;;;6.90;99.90;;;;;;4986185;28;20039;-72
2021/12/10 03:31:49;;;;;;;10.40;1.77;;;6.90;99.90;;;;;;4986088;28;20073;-72
2021/12/10 03:34:17;;;;;;;11.13;2.03;;;6.80;99.90;;;;;;4986242;28;20050;-72
2021/12/10 03:36:50;;;;;;;12.15;1.67;;;6.80;99.90;;;;;;4986007;28;20058;-73
2021/12/10 03:39:22;;;;;;;17.15;2.20;;;6.90;99.90;;;;;;4987292;28;20058;-73
2021/12/10 03:41:51;;;;;;;12.15;2.45;;;6.70;99.90;;;;;;5002017;28;20042;-73
2021/12/10 03:44:19;;;;;;;15.90;2.40;;;6.70;99.90;;;;;;4987444;28;20059;-72
2021/12/10 03:46:47;;;;;;;10.55;2.08;;;6.70;99.90;;;;;;4987039;28;20415;-72
2021/12/10 03:49:15;;;;;;;16.83;1.83;;;6.60;99.90;;;;;;4988015;28;20066;-74
2021/12/10 03:51:43;;;;;;;14.43;2.35;;;6.60;99.90;;;;;;4990777;28;20053;-73
2021/12/10 03:54:12;;;;;;;;;;;6.60;99.90;;;;;;4990803;28;20054;-73
2021/12/10 03:56:39;;;;;;;15.88;2.58;;;6.60;99.90;;;;;;4990730;28;19925;-73
2021/12/10 03:59:13;;;;;;;12.48;2.25;;;6.60;99.90;;;;;;5005151;28;20507;-73
2021/12/10 04:01:43;;;;;;;13.52;2.00;;;6.60;99.90;;;;;;4990257;28;20057;-73
2021/12/10 04:04:16;;;;;;;17.35;2.42;;;6.50;99.90;;;;;;4989418;28;20046;-75
2021/12/10 04:06:44;;;;;;;24.00;3.03;;;6.50;99.90;;;;;;4990479;28;20487;-73
2021/12/10 04:09:13;;;;;;;;;;;6.60;99.90;;;;;;5005488;28;20054;-74
2021/12/10 04:11:42;;;;;;;26.25;2.75;;;6.50;99.90;;;;;;4990125;28;19925;-73
2021/12/10 04:14:10;;;;;;;13.77;2.50;;;6.60;99.90;;;;;;5004743;28;20046;-74
2021/12/10 04:16:38;;;;;;;13.55;2.35;;;6.50;99.90;;;;;;4971433;28;20055;-71
2021/12/10 04:19:13;;;;;;;15.55;2.58;;;6.40;99.90;;;;;;4969974;28;20051;-74
2021/12/10 04:21:42;;;;;;;15.00;2.38;;;6.50;99.90;;;;;;4970286;28;20403;-72
2021/12/10 04:24:16;;;;;;;15.82;2.95;;;6.50;99.90;;;;;;4984832;28;20062;-73
2021/12/10 04:26:45;;;;;;;28.50;3.35;;;6.50;99.90;;;;;;4978454;28;20051;-73
2021/12/10 04:29:12;;;;;;;27.20;3.20;;;6.40;99.90;;;;;;4988896;28;20054;-72
2021/12/10 04:31:41;;;;;;;22.05;2.88;;;6.40;99.90;;;;;;4988327;28;20050;-73
2021/12/10 04:34:09;;;;;;;;;;;6.50;99.90;;;;;;4988406;28;20046;-72
2021/12/10 04:36:36;;;;;;;20.50;3.13;;;6.40;99.90;;;;;;4988746;28;19926;-72
2021/12/10 04:39:05;;;;;;;14.75;2.45;;;6.40;99.90;;;;;;5004322;28;20065;-74
2021/12/10 04:41:33;;;;;;;23.85;3.20;;;6.40;99.90;;;;;;5004191;28;20046;-74
2021/12/10 04:44:01;;;;;;;23.63;3.17;;;6.40;99.90;;;;;;4989357;28;20046;-74
2021/12/10 04:46:29;;;;;;;16.33;2.55;;;6.40;99.90;;;;;;4971975;28;20618;-75
2021/12/10 04:49:00;;;;;;;18.27;3.42;;;6.40;99.90;;;;;;4978386;28;20043;-74
2021/12/10 04:51:32;;;;;;;25.63;3.28;;;6.30;99.90;;;;;;4989221;28;20051;-76
2021/12/10 04:54:00;;;;;;;22.77;3.13;;;6.30;99.90;;;;;;4988915;28;20050;-74
2021/12/10 04:56:29;;;;;;;24.08;3.00;;;6.30;99.90;;;;;;4989184;28;20049;-75
2021/12/10 04:58:59;;;;;;;21.50;3.63;;;6.30;99.90;;;;;;4989211;28;20035;-73
2021/12/10 05:01:28;;;;;;;27.83;3.08;;;6.30;99.90;;;;;;4988176;28;20769;-74
2021/12/10 05:03:58;;;;;;;32.05;3.42;;;6.30;99.90;;;;;;4988721;28;20054;-74
2021/12/10 05:06:26;;;;;;;30.02;3.28;;;6.20;99.90;;;;;;4989091;28;20046;-75
2021/12/10 05:08:54;;;;;;;22.55;2.45;;;6.20;99.90;;;;;;4988280;28;20414;-73
2021/12/10 05:11:22;;;;;;;24.52;2.55;;;6.20;99.90;;;;;;5020458;28;20050;-73
2021/12/10 05:13:50;;;;;;;17.63;2.85;;;6.20;99.90;;;;;;5019828;28;20077;-73
2021/12/10 05:16:24;;;;;;;24.25;3.03;;;6.20;99.90;;;;;;4988598;28;20057;-73
2021/12/10 05:18:59;;;;;;;17.33;2.80;;;6.20;99.90;;;;;;4987626;28;20050;-73
2021/12/10 05:21:32;;;;;;;25.17;2.65;;;6.30;99.90;;;;;;4988468;28;20053;-74
2021/12/10 05:24:00;;;;;;;24.73;3.13;;;6.10;99.90;;;;;;4986764;28;20506;-71
2021/12/10 05:26:28;;;;;;;19.95;3.00;;;6.10;99.90;;;;;;4987006;28;20058;-74
2021/12/10 05:28:57;;;;;;;24.25;2.95;;;6.10;99.90;;;;;;4988310;28;20050;-73
2021/12/10 05:31:25;;;;;;;16.75;2.55;;;6.10;99.90;;;;;;4987041;28;20042;-72
2021/12/10 05:33:53;;;;;;;23.83;2.78;;;6.10;99.90;;;;;;4987552;28;20057;-72
2021/12/10 05:36:21;;;;;;;17.77;2.55;;;6.00;99.90;;;;;;4988162;28;20498;-72
2021/12/10 05:38:49;;;;;;;;;;;5.90;99.90;;;;;;4980398;28;20059;-72
2021/12/10 05:41:17;;;;;;;22.33;2.42;;;6.00;99.90;;;;;;4998629;28;19933;-74
2021/12/10 05:43:44;;;;;;;24.85;2.92;;;6.00;99.90;;;;;;4967620;28;20361;-72
2021/12/10 05:46:12;;;;;;;17.05;2.28;;;5.90;99.90;;;;;;4967166;28;20499;-73
2021/12/10 05:48:40;;;;;;;27.27;2.80;;;5.90;99.90;;;;;;4985516;28;20046;-72
2021/12/10 05:51:10;;;;;;;19.02;2.58;;;5.90;99.90;;;;;;4987596;28;20073;-75
2021/12/10 05:53:38;;;;;;;14.32;2.20;;;6.00;99.90;;;;;;4987458;28;20057;-72
2021/12/10 05:56:05;;;;;;;18.48;2.72;;;5.80;99.90;;;;;;4987213;28;20065;-72
2021/12/10 05:58:33;;;;;;;23.83;2.65;;;5.80;99.90;;;;;;5002496;28;20066;-72
2021/12/10 06:01:09;;;;;;;14.88;1.90;;;5.90;99.90;;;;;;4987052;28;20050;-72
2021/12/10 06:03:39;;;;;;;16.23;2.35;;;5.80;99.90;;;;;;4987469;28;20126;-73
2021/12/10 06:06:08;;;;;;;19.88;2.53;;;5.70;99.90;;;;;;5018533;28;20054;-72
2021/12/10 06:08:36;;;;;;;16.30;2.08;;;5.70;99.90;;;;;;4985604;28;20061;-72
2021/12/10 06:11:06;;;;;;;15.18;2.40;;;5.70;99.90;;;;;;4987142;28;20080;-72
2021/12/10 06:13:35;;;;;;;17.55;2.40;;;5.80;99.90;;;;;;5001786;28;20050;-74
2021/12/10 06:16:04;;;;;;;15.23;2.05;;;5.70;99.90;;;;;;5002186;28;20073;-72
2021/12/10 06:18:32;;;;;;;22.92;2.13;;;5.70;99.90;;;;;;4987318;28;20042;-74
2021/12/10 06:21:00;;;;;;;21.30;2.38;;;5.70;99.90;;;;;;5001549;28;20065;-75
2021/12/10 06:23:28;;;;;;;16.92;2.22;;;5.70;99.90;;;;;;4986822;28;20061;-74
2021/12/10 06:25:56;;;;;;;13.77;1.90;;;5.70;99.90;;;;;;4986027;28;20057;-74
2021/12/10 06:28:23;;;;;;;13.43;1.90;;;5.60;99.90;;;;;;4986938;28;20050;-73
2021/12/10 06:30:52;;;;;;;14.55;2.20;;;5.60;99.90;;;;;;4987146;28;20057;-74
2021/12/10 06:33:25;;;;;;;12.30;2.03;;;5.50;99.90;;;;;;4986705;28;20046;-76
2021/12/10 06:36:03;;;;;;;16.85;1.90;;;5.50;99.90;;;;;;4986338;28;20061;-73
2021/12/10 06:38:31;;;;;;;13.23;1.90;;;5.50;99.90;;;;;;5017856;28;20050;-73
2021/12/10 06:41:00;;;;;;;;;;;5.40;99.90;;;;;;4987371;28;20054;-74
2021/12/10 06:43:27;;;;;;;;;;;5.50;99.90;;;;;;5002264;28;19929;-75
2021/12/10 06:45:55;;;;;;;13.93;1.75;;;5.40;99.90;;;;;;5001389;28;19929;-75
2021/12/10 06:48:26;;;;;;;19.23;2.20;;;5.40;99.90;;;;;;4985565;28;20053;-75
2021/12/10 06:51:01;;;;;;;15.00;2.00;;;5.30;99.90;;;;;;5001912;28;20057;-75
2021/12/10 06:53:30;;;;;;;15.70;2.10;;;5.30;99.90;;;;;;4985281;28;20061;-75
2021/12/10 06:55:59;;;;;;;10.68;1.90;;;5.20;99.90;;;;;;5001660;28;20057;-75
2021/12/10 06:58:31;;;;;;;12.10;1.70;;;5.30;99.90;;;;;;5017754;28;20054;-75
2021/12/10 07:01:07;;;;;;;11.63;1.80;;;5.20;99.90;;;;;;4985681;28;20050;-75
2021/12/10 07:03:35;;;;;;;15.18;1.80;;;5.20;99.90;;;;;;4986649;28;20052;-73
2021/12/10 07:06:06;;;;;;;19.35;1.90;;;5.20;99.90;;;;;;4985720;28;20046;-75
2021/12/10 07:08:37;;;;;;;13.63;2.28;;;5.20;99.90;;;;;;4977661;28;20058;-74
2021/12/10 07:11:09;;;;;;;12.52;2.00;;;5.20;99.90;;;;;;4976847;28;20054;-72
2021/12/10 07:13:41;;;;;;;12.20;1.45;;;5.10;99.90;;;;;;4983414;28;20406;-74
2021/12/10 07:16:10;;;;;;;12.27;2.10;;;5.10;99.90;;;;;;4981758;28;20042;-73
2021/12/10 07:18:38;;;;;;;12.07;1.70;;;5.10;99.90;;;;;;4978723;28;20047;-73
2021/12/10 07:21:07;;;;;;;15.65;2.20;;;5.10;99.90;;;;;;4996003;28;20463;-73
2021/12/10 07:23:37;;;;;;;13.30;2.10;;;5.10;99.90;;;;;;4985287;28;20049;-76
2021/12/10 07:26:06;;;;;;;14.23;2.10;;;5.10;99.90;;;;;;5004450;28;20069;-73
2021/12/10 07:28:33;;;;;;;17.85;2.35;;;5.10;99.90;;;;;;4987286;28;20080;-72
2021/12/10 07:31:04;;;;;;;12.45;1.60;;;5.10;99.90;;;;;;4987746;28;20058;-73
2021/12/10 07:33:31;;;;;;;12.63;1.88;;;5.10;99.90;;;;;;4989567;28;20047;-74
2021/12/10 07:35:59;;;;;;;10.98;1.70;;;5.10;99.90;;;;;;4985585;28;20042;-72
2021/12/10 07:38:27;;;;;;;17.92;2.08;;;5.10;99.90;;;;;;4987548;28;20042;-73
2021/12/10 07:40:54;;;;;;;8.40;1.55;;;5.00;99.90;;;;;;4986817;28;20042;-75
2021/12/10 07:43:22;;;;;;;19.17;1.90;;;5.10;99.90;;;;;;4988186;28;20051;-73
2021/12/10 07:45:52;;;;;;;12.18;2.00;;;5.00;99.90;;;;;;4988373;28;20043;-74
2021/12/10 07:48:23;;;;;;;8.80;1.48;;;5.00;99.90;;;;;;5019713;28;20055;-75
2021/12/10 07:50:58;;;;;;;12.48;1.90;;;5.00;99.90;;;;;;4984204;28;20062;-74
2021/12/10 07:53:31;;;;;;;15.45;2.08;;;4.90;99.90;;;;;;4978646;28;20057;-73
2021/12/10 07:56:05;;;;;;;15.27;1.80;;;4.90;99.90;;;;;;4977023;28;20379;-74
2021/12/10 07:58:34;;;;;;;10.07;2.00;;;4.90;99.90;;;;;;4978616;28;20176;-74
2021/12/10 08:01:09;;;;;;;13.88;1.83;;;4.90;99.90;;;;;;4988025;28;20061;-73
2021/12/10 08:03:37;;;;;;;20.40;2.03;;;4.90;99.90;;;;;;4988175;28;20038;-74
2021/12/10 08:06:05;;;;;;;18.73;2.35;;;4.80;99.90;;;;;;4988042;28;20384;-75
2021/12/10 08:08:33;;;;;;;21.83;2.00;;;4.80;99.90;;;;;;4987749;28;20058;-74
2021/12/10 08:11:02;;;;;;;10.27;2.03;;;4.80;99.90;;;;;;4997290;28;20047;-74
2021/12/10 08:13:30;;;;;;;18.30;1.95;;;4.80;99.90;;;;;;4968482;28;20056;-75
2021/12/10 08:15:58;;;;;;;7.65;1.55;;;4.90;99.90;;;;;;5002987;28;20054;-72
2021/12/10 08:18:26;;;;;;;15.02;1.80;;;4.70;99.90;;;;;;5003806;28;20050;-74
2021/12/10 08:20:57;;;;;;;13.40;2.08;;;4.70;99.90;;;;;;4988208;28;20050;-74
2021/12/10 08:23:26;;;;;;;18.27;1.90;;;4.70;99.90;;;;;;4988731;28;20517;-74
2021/12/10 08:25:54;;;;;;;16.25;1.90;;;4.60;99.90;;;;;;4989495;28;20053;-75
2021/12/10 08:28:24;;;;;;;16.20;2.13;;;4.60;99.90;;;;;;4986949;28;20058;-74
2021/12/10 08:30:53;;;;;;;19.77;2.22;;;4.60;99.90;;;;;;4988814;28;20057;-75
2021/12/10 08:33:22;;;;;;;16.00;2.17;;;4.60;99.90;;;;;;4999979;28;20050;-74
2021/12/10 08:35:58;;;;;;;17.55;2.38;;;4.60;99.90;;;;;;4986718;28;20046;-73
2021/12/10 08:38:26;;;;;;;11.27;1.92;;;4.60;99.90;;;;;;5003460;28;20058;-75
2021/12/10 08:41:08;;;;;;;15.23;1.65;;;4.60;99.90;;;;;;5002964;28;20042;-75
2021/12/10 08:43:36;;;;;;;18.90;2.00;;;4.60;99.90;;;;;;4987866;28;20119;-72
2021/12/10 08:46:06;;;;;;;19.08;1.83;;;4.60;99.90;;;;;;4988800;28;20081;-76
2021/12/10 08:48:35;;;;;;;20.23;2.28;;;4.60;99.90;;;;;;4987541;28;20070;-74
2021/12/10 08:51:17;;;;;;;16.70;2.08;;;4.70;99.90;;;;;;4988477;28;20606;-74
2021/12/10 08:53:44;;;;;;;13.07;1.80;;;4.70;99.90;;;;;;5003423;28;20054;-75
2021/12/10 08:56:13;;;;;;;16.73;1.90;;;4.70;99.90;;;;;;4988691;28;20038;-73
2021/12/10 08:58:41;;;;;;;10.30;1.90;;;4.80;99.90;;;;;;4988425;28;20050;-76
2021/12/10 09:01:19;;;;;;;14.18;2.13;;;4.70;99.90;;;;;;5003209;28;20050;-74
2021/12/10 09:03:51;;;;;;;11.93;1.77;;;4.80;99.90;;;;;;4988790;28;20599;-73
2021/12/10 09:06:24;;;;;;;18.23;2.15;;;4.80;99.90;;;;;;4988568;28;20047;-74
2021/12/10 09:08:53;;;;;;;20.38;2.38;;;4.90;99.90;;;;;;4988350;28;20049;-74
2021/12/10 09:11:21;;;;;;;11.35;1.92;;;4.90;99.90;;;;;;4986712;28;20074;-77
2021/12/10 09:14:07;;;;;;;21.85;2.58;;;4.90;99.90;;;;;;4967708;28;20058;-74
2021/12/10 09:16:37;;;;;;;12.77;2.17;;;5.00;99.90;;;;;;5019039;28;20062;-77
2021/12/10 09:19:07;;;;;;;18.80;2.13;;;5.00;99.90;;;;;;4987077;28;20065;-72
2021/12/10 09:21:35;;;;;;;14.35;2.17;;;5.10;99.90;;;;;;5019763;28;20047;-75
2021/12/10 09:24:06;;;;;;;17.50;2.35;;;5.10;99.90;;;;;;4986581;28;20057;-75
2021/12/10 09:26:37;;;;;;;16.80;2.03;;;5.10;99.90;;;;;;5002985;28;20051;-74
2021/12/10 09:29:08;;;;;;;13.32;2.30;;;5.10;99.90;;;;;;5002861;28;20058;-75
2021/12/10 09:31:38;;;;;;;12.57;1.85;;;5.10;99.90;;;;;;4985506;28;20050;-75
2021/12/10 09:34:06;;;;;;;13.13;2.00;;;5.10;99.90;;;;;;5010520;28;20074;-72
2021/12/10 09:36:34;;;;;;;15.60;2.35;;;5.20;99.90;;;;;;4982529;28;20046;-72
2021/12/10 09:39:06;;;;;;;14.63;2.13;;;5.20;99.90;;;;;;4968334;28;20468;-72
2021/12/10 09:41:35;;;;;;;13.52;2.03;;;5.30;99.90;;;;;;4977811;28;20043;-73
2021/12/10 09:44:07;;;;;;;16.20;2.13;;;5.30;99.90;;;;;;4968447;28;20077;-75
2021/12/10 09:46:37;;;;;;;16.45;2.28;;;5.30;99.90;;;;;;5007658;28;20482;-72
2021/12/10 09:49:09;;;;;;;18.40;2.70;;;5.30;99.90;;;;;;4967571;28;20059;-75
2021/12/10 09:51:42;;;;;;;14.13;2.33;;;5.40;99.90;;;;;;4977538;28;20046;-73
2021/12/10 09:54:13;;;;;;;17.38;2.50;;;5.40;99.90;;;;;;4987123;28;20050;-75
2021/12/10 09:56:55;;;;;;;14.00;2.25;;;5.40;99.90;;;;;;4993122;28;20391;-72
2021/12/10 09:59:23;;;;;;;13.15;2.10;;;5.50;99.90;;;;;;5001432;28;20038;-74
2021/12/10 10:01:53;;;;;;;13.23;2.17;;;5.50;99.90;;;;;;4983493;28;20148;-73
2021/12/10 10:04:23;;;;;;;9.82;2.22;;;5.60;99.90;;;;;;4986676;28;20053;-74
2021/12/10 10:07:00;;;;;;;18.23;2.05;;;5.60;99.90;;;;;;4987307;28;20050;-74
2021/12/10 10:09:28;;;;;;;13.60;2.40;;;5.70;99.90;;;;;;4985880;28;20430;-75
2021/12/10 10:12:05;;;;;;;22.40;2.33;;;5.80;99.90;;;;;;4979176;28;20593;-74
2021/12/10 10:14:33;;;;;;;17.45;2.40;;;6.00;99.90;;;;;;5000769;28;20046;-77
2021/12/10 10:17:01;;;;;;;13.48;1.83;;;6.10;99.90;;;;;;4988299;28;20054;-76
2021/12/10 10:19:30;;;;;;;12.85;2.10;;;6.20;99.90;;;;;;4992536;28;20046;-74
2021/12/10 10:21:58;;;;;;;14.43;2.25;;;6.20;99.90;;;;;;4985260;28;20057;-76
2021/12/10 10:24:28;;;;;;;13.55;2.10;;;6.40;99.90;;;;;;4984539;28;20038;-74
2021/12/10 10:27:14;;;;;;;18.10;2.10;;;6.60;99.90;;;;;;5001047;28;20047;-75
2021/12/10 10:29:47;;;;;;;14.15;2.40;;;6.80;99.90;;;;;;4970793;28;20050;-73
2021/12/10 10:32:19;;;;;;;10.40;1.90;;;6.90;99.90;;;;;;4984503;28;20076;-74
2021/12/10 10:34:52;;;;;;;13.75;2.20;;;7.10;99.90;;;;;;4984521;28;20702;-73
2021/12/10 10:37:20;;;;;;;11.82;2.05;;;7.20;99.90;;;;;;4983389;28;20054;-75
2021/12/10 10:39:51;;;;;;;13.27;2.20;;;7.30;99.90;;;;;;4967406;28;20053;-75
2021/12/10 10:42:24;;;;;;;8.75;1.85;;;7.50;99.90;;;;;;4981807;28;20061;-75
2021/12/10 10:44:58;;;;;;;14.05;1.80;;;7.60;99.90;;;;;;4991671;28;20050;-75
2021/12/10 10:47:26;;;;;;;8.80;1.77;;;7.90;99.90;;;;;;4994583;28;20061;-77
2021/12/10 10:49:59;;;;;;;16.58;2.22;;;8.00;99.90;;;;;;4977090;28;20065;-75
2021/12/10 10:52:34;;;;;;;13.07;1.85;;;8.20;99.90;;;;;;4982532;28;20593;-76
2021/12/10 10:55:11;;;;;;;12.70;1.92;;;8.50;99.90;;;;;;4984463;28;20049;-74
2021/12/10 10:57:56;;;;;;;13.68;1.90;;;8.70;99.90;;;;;;5005352;28;20058;-77
2021/12/10 11:00:44;;;;;;;13.43;2.10;;;8.90;99.90;;;;;;4978604;28;20038;-79
2021/12/10 11:03:42;;;;;;;13.10;2.00;;;9.10;99.90;;;;;;4984701;28;20050;-79
2021/12/10 11:06:24;;;;;;;14.30;2.10;;;9.60;99.90;;;;;;4989121;28;20408;-76
2021/12/10 11:09:05;;;;;;;12.07;1.67;;;10.00;99.90;;;;;;4996081;28;20054;-77
2021/12/10 11:11:35;;;;;;;9.02;2.00;;;10.20;99.90;;;;;;4996039;28;20411;-75
2021/12/10 11:14:10;;;;;;;12.98;2.00;;;10.40;99.90;;;;;;5005798;28;20050;-76
2021/12/10 11:16:41;;;;;;;14.65;1.90;;;10.60;99.90;;;;;;4984868;28;20046;-77
2021/12/10 11:19:19;;;;;;;15.55;2.17;;;10.90;99.90;;;;;;4980265;28;20057;-79
2021/12/10 11:21:51;;;;;;;11.65;1.95;;;10.80;99.90;;;;;;4979351;28;20138;-78
2021/12/10 11:24:44;;;;;;;12.65;1.88;;;10.90;99.90;;;;;;4985075;28;20372;-76
2021/12/10 11:27:19;;;;;;;14.63;2.00;;;11.10;99.90;;;;;;4997410;28;20038;-77
2021/12/10 11:30:10;;;;;;;11.10;2.03;;;11.30;99.90;;;;;;4981522;28;20446;-78
2021/12/10 11:32:41;;;;;;;10.07;1.88;;;11.50;99.90;;;;;;4984676;28;20050;-77
2021/12/10 11:35:17;;;;;;;12.93;2.13;;;11.60;99.90;;;;;;4986906;28;20530;-77
2021/12/10 11:37:56;;;;;;;13.15;2.10;;;11.70;99.90;;;;;;4985830;28;20046;-78
2021/12/10 11:40:52;;;;;;;11.73;2.08;;;11.90;99.90;;;;;;4985799;28;20735;-78
2021/12/10 11:46:45;;;;;;;8.00;1.90;;;12.50;99.90;;;;;;4984484;28;20487;-78
2021/12/10 11:49:16;;;;;;;11.23;1.83;;;12.80;99.90;;;;;;4983260;28;20047;-77
2021/12/10 11:51:56;;;;;;;10.68;2.00;;;12.90;99.90;;;;;;4982997;28;20038;-73
2021/12/10 11:54:38;;;;;;;8.27;1.83;;;12.90;99.90;;;;;;4998314;28;20460;-72
2021/12/10 11:57:09;;;;;;;11.75;2.00;;;13.00;99.90;;;;;;4999179;28;20054;-74
2021/12/10 12:00:02;;;;;;;9.30;1.73;;;13.00;99.90;;;;;;4998478;28;20110;-73
2021/12/10 12:02:58;;;;;;;11.38;2.08;;;12.90;98.50;;;;;;4983314;28;20046;-75
2021/12/10 12:05:29;;;;;;;9.48;1.70;;;12.40;98.90;;;;;;4984080;28;20051;-73
2021/12/10 12:08:05;;;;;;;10.38;1.83;;;12.10;99.50;;;;;;4983097;28;20047;-73
2021/12/10 12:10:42;;;;;;;10.15;1.92;;;11.90;99.60;;;;;;4985618;28;20521;-76
2021/12/10 12:15:54;;;;;;;13.38;2.00;;;11.90;99.90;;;;;;4987971;28;20050;-75
2021/12/10 12:18:25;;;;;;;9.65;1.98;;;12.00;99.90;;;;;;5019083;28;20403;-74
2021/12/10 12:27:06;;;;;;;12.85;1.95;;;11.10;99.90;;;;;;4989317;28;20061;-73
2021/12/10 12:29:56;;;;;;;9.52;1.90;;;10.60;99.90;;;;;;4986294;28;20049;-73
2021/12/10 12:32:33;;;;;;;9.32;1.65;;;10.20;99.90;;;;;;4970455;28;20411;-72
2021/12/10 12:35:19;;;;;;;13.82;1.98;;;9.90;99.90;;;;;;4986993;28;20505;-77
2021/12/10 12:37:47;;;;;;;8.57;1.90;;;9.70;99.90;;;;;;4988328;28;20061;-81
2021/12/10 12:40:37;;;;;;;13.40;1.98;;;9.50;99.90;;;;;;5021238;28;20392;-81
2021/12/10 12:43:06;;;;;;;13.20;1.80;;;9.40;99.90;;;;;;4987933;28;20058;-77
2021/12/10 12:45:43;;;;;;;14.80;2.35;;;9.40;99.90;;;;;;4989422;28;20051;-75
2021/12/10 12:48:24;;;;;;;15.43;2.08;;;9.40;99.90;;;;;;4971813;28;20065;-77
2021/12/10 12:50:55;;;;;;;12.15;1.80;;;9.40;99.90;;;;;;4987725;28;20796;-81
2021/12/10 12:53:29;;;;;;;9.48;1.60;;;9.30;99.90;;;;;;4972156;28;20054;-82
2021/12/10 12:56:11;;;;;;;9.68;2.15;;;9.20;99.90;;;;;;4979010;28;20073;-77
2021/12/10 12:59:10;;;;;;;10.27;1.75;;;9.10;99.90;;;;;;4985042;28;20066;-81
2021/12/10 13:01:44;;;;;;;15.75;1.80;;;8.90;99.90;;;;;;4988547;28;20054;-75
2021/12/10 13:04:17;;;;;;;12.45;1.90;;;8.80;99.90;;;;;;5013441;28;20055;-77
2021/12/10 13:07:18;;;;;;;15.35;1.92;;;8.70;99.90;;;;;;4983726;28;20038;-77
2021/12/10 13:09:55;;;;;;;8.50;1.77;;;8.70;99.90;;;;;;4986676;28;20042;-79
2021/12/10 13:12:47;;;;;;;10.77;1.48;;;8.80;99.90;;;;;;4998194;28;20057;-78
2021/12/10 13:15:28;;;;;;;10.95;1.55;;;8.80;99.90;;;;;;4981191;28;20050;-76
2021/12/10 13:18:06;;;;;;;7.75;1.38;;;8.90;99.90;;;;;;4975275;28;20062;-76
2021/12/10 13:20:45;;;;;;;11.05;1.77;;;8.90;99.90;;;;;;4972397;28;20053;-88
2021/12/10 13:23:16;;;;;;;9.32;1.70;;;9.00;99.90;;;;;;4981843;28;20054;-82
2021/12/10 13:25:48;;;;;;;13.88;1.85;;;8.90;99.90;;;;;;4984800;28;20057;-76
2021/12/10 13:28:16;;;;;;;10.07;1.50;;;8.90;99.90;;;;;;4982912;28;20482;-74
2021/12/10 13:30:49;;;;;;;9.68;1.50;;;8.80;99.90;;;;;;5003973;28;20694;-74
2021/12/10 13:33:23;;;;;;;9.13;1.38;;;8.70;99.90;;;;;;4996182;28;20046;-75
2021/12/10 13:35:51;;;;;;;9.20;1.50;;;8.60;99.90;;;;;;4998602;28;20066;-74
2021/12/10 13:38:20;;;;;;;8.63;1.67;;;8.40;99.90;;;;;;4993108;28;20598;-73